This is the latest recevied weather packets stored in our database for station/object OK1FET-14. If no packets are shown the sender has not sent any weather packets the latest 1 day(s).
| Time | Temp. | Humidity | Pressure | Rain* | Wind** | Luminosity | Snow |
|---|---|---|---|---|---|---|---|
| 1778026361 | 10.56° C | 100% | 1007.3 hPa | - | 5.81 m/s, 203° | - | - |
| 1778026361 | 10.56° C | 100% | 1007.3 hPa | - | 5.81 m/s, 203° | - | - |
| 1778026081 | 10.56° C | 100% | 1007.4 hPa | - | 5.36 m/s, 196° | - | - |
| 1778026081 | 10.56° C | 100% | 1007.4 hPa | - | 5.36 m/s, 196° | - | - |
| 1778026081 | 10.56° C | 100% | 1007.4 hPa | - | 5.36 m/s, 196° | - | - |
| 1778026081 | 10.56° C | 100% | 1007.4 hPa | - | 5.36 m/s, 196° | - | - |
| 1778025801 | 10.56° C | 100% | 1007.4 hPa | - | 4.47 m/s, 216° | - | - |
| 1778025801 | 10.56° C | 100% | 1007.4 hPa | - | 4.47 m/s, 216° | - | - |
| 1778025801 | 10.56° C | 100% | 1007.4 hPa | - | 4.47 m/s, 216° | - | - |
| 1778025800 | 10.56° C | 100% | 1007.4 hPa | - | 4.47 m/s, 216° | - | - |
| 1778025521 | 10.56° C | 100% | 1007.5 hPa | - | 4.02 m/s, 210° | - | - |
| 1778025520 | 10.56° C | 100% | 1007.5 hPa | - | 4.02 m/s, 210° | - | - |
| 1778025520 | 10.56° C | 100% | 1007.5 hPa | - | 4.02 m/s, 210° | - | - |
| 1778025520 | 10.56° C | 100% | 1007.5 hPa | - | 4.02 m/s, 210° | - | - |
| 1778025240 | 10.56° C | 100% | 1007.5 hPa | - | 3.58 m/s, 218° | - | - |
| 1778025240 | 10.56° C | 100% | 1007.5 hPa | - | 3.58 m/s, 218° | - | - |
| 1778025240 | 10.56° C | 100% | 1007.5 hPa | - | 3.58 m/s, 218° | - | - |
| 1778025240 | 10.56° C | 100% | 1007.5 hPa | - | 3.58 m/s, 218° | - | - |
| 1778024960 | 10.56° C | 100% | 1007.6 hPa | - | 4.02 m/s, 183° | - | - |
| 1778024960 | 10.56° C | 100% | 1007.6 hPa | - | 4.02 m/s, 183° | - | - |
| 1778024960 | 10.56° C | 100% | 1007.6 hPa | - | 4.02 m/s, 183° | - | - |
| 1778024960 | 10.56° C | 100% | 1007.6 hPa | - | 4.02 m/s, 183° | - | - |
| 1778024680 | 10.56° C | 100% | 1007.6 hPa | - | 4.02 m/s, 196° | - | - |
| 1778024680 | 10.56° C | 100% | 1007.6 hPa | - | 4.02 m/s, 196° | - | - |
| 1778024680 | 10.56° C | 100% | 1007.6 hPa | - | 4.02 m/s, 196° | - | - |
* Rain since midnight (hover to see other rain measurements)
** Current wind speed in m/s (hover to see current wind gust speed)